createdAt,value
2019-04-27T00:00:10.810Z,1.57
2019-04-27T00:02:57.471Z,2.75
2019-04-27T00:05:43.346Z,2.87
2019-04-27T00:08:35.193Z,2.10
2019-04-27T00:11:17.621Z,1.85
2019-04-27T00:13:47.010Z,3.00
2019-04-27T00:16:33.822Z,2.15
2019-04-27T00:19:20.272Z,2.15
2019-04-27T00:21:53.115Z,2.85
2019-04-27T00:24:21.321Z,3.35
2019-04-27T00:26:49.570Z,1.22
2019-04-27T00:29:18.836Z,3.85
2019-04-27T00:31:47.077Z,1.80
2019-04-27T00:34:15.286Z,4.47
2019-04-27T00:36:47.798Z,3.80
2019-04-27T00:39:29.848Z,3.08
2019-04-27T00:41:58.092Z,3.33
2019-04-27T00:44:26.290Z,8.28
2019-04-27T00:46:54.582Z,3.02
2019-04-27T00:49:23.877Z,4.97
2019-04-27T00:51:53.607Z,4.22
2019-04-27T00:54:23.625Z,4.62
2019-04-27T00:56:56.580Z,2.30
2019-04-27T00:59:26.439Z,2.00
2019-04-27T01:02:13.351Z,2.20
2019-04-27T01:04:42.846Z,2.30
2019-04-27T01:07:14.192Z,7.17
2019-04-27T01:09:42.928Z,4.72
2019-04-27T01:12:11.552Z,4.67
2019-04-27T01:14:39.772Z,4.22
2019-04-27T01:17:08.863Z,3.80
2019-04-27T01:19:37.071Z,2.55
2019-04-27T01:22:05.369Z,5.12
2019-04-27T01:24:33.557Z,2.47
2019-04-27T01:27:12.261Z,5.25
2019-04-27T01:29:41.495Z,1.95
2019-04-27T01:32:11.399Z,1.80
2019-04-27T01:34:39.736Z,5.08
2019-04-27T01:37:09.453Z,4.17
2019-04-27T01:39:38.738Z,5.08
2019-04-27T01:42:07.122Z,4.20
2019-04-27T01:44:35.334Z,5.12
2019-04-27T01:47:03.565Z,2.95
2019-04-27T01:49:31.769Z,2.85
2019-04-27T01:51:59.991Z,1.65
2019-04-27T01:54:29.391Z,2.67
2019-04-27T01:57:00.698Z,5.25
2019-04-27T01:59:28.277Z,3.12
2019-04-27T02:01:59.136Z,3.85
2019-04-27T02:04:29.443Z,2.42
2019-04-27T02:06:59.302Z,1.45
2019-04-27T02:09:28.899Z,2.17
2019-04-27T02:11:59.071Z,3.47
2019-04-27T02:14:28.785Z,6.03
2019-04-27T02:16:57.136Z,4.42
2019-04-27T02:19:25.330Z,2.05
2019-04-27T02:21:53.643Z,2.40
2019-04-27T02:24:21.853Z,3.87
2019-04-27T02:26:50.129Z,3.75
2019-04-27T02:29:36.111Z,3.62
2019-04-27T02:32:05.969Z,2.98
2019-04-27T02:34:52.238Z,2.87
2019-04-27T02:37:20.461Z,2.42
2019-04-27T02:39:50.054Z,2.27
2019-04-27T02:42:20.022Z,3.62
2019-04-27T02:44:49.683Z,3.83
2019-04-27T02:47:20.537Z,2.92
2019-04-27T02:49:50.395Z,2.40
2019-04-27T02:52:22.332Z,4.78
2019-04-27T02:54:51.595Z,5.47
2019-04-27T02:57:20.163Z,2.95
2019-04-27T02:59:50.248Z,2.77
2019-04-27T03:02:29.931Z,3.52
2019-04-27T03:05:00.671Z,5.12
2019-04-27T03:07:30.179Z,5.10
2019-04-27T03:09:59.728Z,1.67
2019-04-27T03:12:30.180Z,5.03
2019-04-27T03:15:02.461Z,4.10
2019-04-27T03:17:39.534Z,2.40
2019-04-27T03:20:20.229Z,2.42
2019-04-27T03:22:50.098Z,4.53
2019-04-27T03:25:40.100Z,5.55
2019-04-27T03:28:10.658Z,4.70
2019-04-27T03:30:42.521Z,5.00
2019-04-27T03:33:11.822Z,3.10
2019-04-27T03:35:44.935Z,5.25
2019-04-27T03:38:13.151Z,3.62
2019-04-27T03:40:41.370Z,5.58
2019-04-27T03:43:11.779Z,3.62
2019-04-27T03:45:40.202Z,3.98
2019-04-27T03:48:10.304Z,2.62
2019-04-27T03:50:42.773Z,4.05
2019-04-27T03:53:29.872Z,3.70
2019-04-27T03:56:16.050Z,4.83
2019-04-27T03:58:49.610Z,3.45
2019-04-27T04:01:20.125Z,6.43
2019-04-27T04:03:50.005Z,6.80
2019-04-27T04:06:19.454Z,4.58
2019-04-27T04:08:50.268Z,8.93
2019-04-27T04:11:31.661Z,4.80
2019-04-27T04:14:13.508Z,5.33
2019-04-27T04:17:02.659Z,4.62
2019-04-27T04:19:31.590Z,3.58
2019-04-27T04:21:59.937Z,7.53
2019-04-27T04:24:30.949Z,6.65
2019-04-27T04:26:59.929Z,10.40
2019-04-27T04:29:30.631Z,3.90
2019-04-27T04:32:00.500Z,4.90
2019-04-27T04:34:29.851Z,6.55
2019-04-27T04:37:00.229Z,5.65
2019-04-27T04:39:29.692Z,8.18
2019-04-27T04:42:02.137Z,3.15
2019-04-27T04:44:34.682Z,6.60
2019-04-27T04:47:19.638Z,3.90
2019-04-27T04:49:54.585Z,3.98
2019-04-27T04:52:19.703Z,5.35
2019-04-27T04:54:49.546Z,7.72
2019-04-27T04:57:21.878Z,5.58
2019-04-27T04:59:51.400Z,6.20
2019-04-27T05:02:19.772Z,5.22
2019-04-27T05:04:49.211Z,6.00
2019-04-27T05:07:19.303Z,6.15
2019-04-27T05:09:48.596Z,5.70
2019-04-27T05:12:16.909Z,4.67
2019-04-27T05:14:45.138Z,3.75
2019-04-27T05:17:13.383Z,8.60
2019-04-27T05:19:49.083Z,7.65
2019-04-27T05:22:17.345Z,3.77
2019-04-27T05:24:47.190Z,13.70
2019-04-27T05:27:15.410Z,9.28
2019-04-27T05:29:43.617Z,4.90
2019-04-27T05:32:11.861Z,7.30
2019-04-27T05:34:40.066Z,4.95
2019-04-27T05:37:08.938Z,4.80
2019-04-27T05:39:38.895Z,9.30
2019-04-27T05:42:12.552Z,6.90
2019-04-27T05:45:00.645Z,9.23
2019-04-27T05:47:30.519Z,7.65
2019-04-27T05:50:00.345Z,7.60
2019-04-27T05:52:29.368Z,8.18
2019-04-27T05:54:58.925Z,10.28
2019-04-27T05:57:28.770Z,9.25
2019-04-27T05:59:58.887Z,7.72
2019-04-27T06:02:30.194Z,7.47
2019-04-27T06:05:00.076Z,8.30
2019-04-27T06:07:29.679Z,6.60
2019-04-27T06:09:59.854Z,9.30
2019-04-27T06:12:29.610Z,11.73
2019-04-27T06:14:59.891Z,11.40
2019-04-27T06:17:29.908Z,19.45
2019-04-27T06:19:59.479Z,7.30
2019-04-27T06:22:29.223Z,9.68
2019-04-27T06:24:59.721Z,13.20
2019-04-27T06:27:30.685Z,7.62
2019-04-27T06:29:59.357Z,8.68
2019-04-27T06:32:29.364Z,9.30
2019-04-27T06:34:58.941Z,9.20
2019-04-27T06:37:29.336Z,8.25
2019-04-27T06:39:59.421Z,9.18
2019-04-27T06:42:29.433Z,8.60
2019-04-27T06:44:57.277Z,5.35
2019-04-27T06:47:25.476Z,5.17
2019-04-27T06:49:53.703Z,10.28
2019-04-27T06:52:21.937Z,6.75
2019-04-27T06:54:50.161Z,9.33
2019-04-27T06:57:19.254Z,9.88
2019-04-27T06:59:48.409Z,7.97
2019-04-27T07:02:19.001Z,7.50
2019-04-27T07:04:49.006Z,7.92
2019-04-27T07:07:19.372Z,13.72
2019-04-27T07:09:47.259Z,9.98
2019-04-27T07:12:15.461Z,11.05
2019-04-27T07:14:52.369Z,8.15
2019-04-27T07:17:13.633Z,10.45
2019-04-27T07:19:41.877Z,10.40
2019-04-27T07:22:11.450Z,8.80
2019-04-27T07:24:40.652Z,15.85
2019-04-27T07:27:09.371Z,10.82
2019-04-27T07:29:40.338Z,9.53
2019-04-27T07:32:09.109Z,10.45
2019-04-27T07:34:38.776Z,8.88
2019-04-27T07:37:07.154Z,10.50
2019-04-27T07:39:35.366Z,8.48
2019-04-27T07:42:03.656Z,11.25
2019-04-27T07:44:33.509Z,7.15
2019-04-27T07:47:21.423Z,8.93
2019-04-27T07:49:49.851Z,6.62
2019-04-27T07:52:18.515Z,11.03
2019-04-27T07:54:49.455Z,8.28
2019-04-27T07:57:19.403Z,7.22
2019-04-27T07:59:49.872Z,8.28
2019-04-27T08:02:18.973Z,9.13
2019-04-27T08:04:50.320Z,13.35
2019-04-27T08:07:19.615Z,14.50
2019-04-27T08:09:49.599Z,16.32
2019-04-27T08:12:18.476Z,8.90
2019-04-27T08:14:49.047Z,16.75
2019-04-27T08:17:19.163Z,11.48
2019-04-27T08:19:49.359Z,12.75
2019-04-27T08:22:19.260Z,11.95
2019-04-27T08:24:49.378Z,14.35
2019-04-27T08:27:35.247Z,13.55
2019-04-27T08:30:06.837Z,14.47
2019-04-27T08:32:41.563Z,11.65
2019-04-27T08:35:15.580Z,14.05
2019-04-27T08:37:43.811Z,10.75
2019-04-27T08:40:12.008Z,9.88
2019-04-27T08:42:40.236Z,25.75
2019-04-27T08:45:09.409Z,11.70
2019-04-27T08:47:43.643Z,12.55
2019-04-27T08:50:11.857Z,10.72
2019-04-27T08:52:41.949Z,7.00
2019-04-27T08:55:09.998Z,8.43
2019-04-27T08:57:38.819Z,9.88
2019-04-27T09:00:10.209Z,12.88
2019-04-27T09:02:44.129Z,11.25
2019-04-27T09:05:09.507Z,7.67
2019-04-27T09:07:42.361Z,6.62
2019-04-27T09:10:12.229Z,11.33
2019-04-27T09:12:58.899Z,11.10
2019-04-27T09:15:31.629Z,9.28
2019-04-27T09:18:09.080Z,18.12
2019-04-27T09:20:39.145Z,14.73
2019-04-27T09:23:07.361Z,9.08
2019-04-27T09:25:35.576Z,10.18
2019-04-27T09:28:05.261Z,11.80
2019-04-27T09:30:34.582Z,11.38
2019-04-27T09:33:02.788Z,11.83
2019-04-27T09:35:31.031Z,11.20
2019-04-27T09:37:59.237Z,11.25
2019-04-27T09:40:27.453Z,12.18
2019-04-27T09:42:57.159Z,11.55
2019-04-27T09:45:27.092Z,16.45
2019-04-27T09:47:56.246Z,12.55
2019-04-27T09:50:28.026Z,8.40
2019-04-27T09:52:55.698Z,16.27
2019-04-27T09:55:26.143Z,9.83
2019-04-27T09:57:54.016Z,10.78
2019-04-27T10:00:22.237Z,8.15
2019-04-27T10:02:50.456Z,9.80
2019-04-27T10:05:18.656Z,15.25
2019-04-27T10:07:47.723Z,8.13
2019-04-27T10:10:16.062Z,10.28
2019-04-27T10:12:44.277Z,12.82
2019-04-27T10:15:12.518Z,15.32
2019-04-27T10:17:40.733Z,15.00
2019-04-27T10:20:08.958Z,10.48
2019-04-27T10:22:41.194Z,14.40
2019-04-27T10:25:08.762Z,10.53
2019-04-27T10:27:37.012Z,19.12
2019-04-27T10:30:17.157Z,15.98
2019-04-27T10:32:46.160Z,12.60
2019-04-27T10:35:16.069Z,19.55
2019-04-27T10:37:44.341Z,14.85
2019-04-27T10:40:12.559Z,14.38
2019-04-27T10:42:40.763Z,14.85
2019-04-27T10:45:10.646Z,12.75
2019-04-27T10:47:38.850Z,11.97
2019-04-27T10:50:07.143Z,15.00
2019-04-27T10:52:35.367Z,16.77
2019-04-27T10:55:03.663Z,12.78
2019-04-27T10:57:31.903Z,16.10
2019-04-27T11:00:00.119Z,6.87
2019-04-27T11:02:28.353Z,6.45
2019-04-27T11:05:10.406Z,5.40
2019-04-27T11:07:39.710Z,7.12
2019-04-27T11:10:09.441Z,4.05
2019-04-27T11:12:37.667Z,11.73
2019-04-27T11:15:08.221Z,11.10
2019-04-27T11:17:38.071Z,7.72
2019-04-27T11:20:07.626Z,7.25
2019-04-27T11:22:36.391Z,12.88
2019-04-27T11:25:06.891Z,9.30
2019-04-27T11:27:35.113Z,7.83
2019-04-27T11:30:06.698Z,10.93
2019-04-27T11:32:35.117Z,6.42
2019-04-27T11:35:20.563Z,5.40
2019-04-27T11:37:50.552Z,4.87
2019-04-27T11:40:21.166Z,4.70
2019-04-27T11:42:50.358Z,9.45
2019-04-27T11:45:18.559Z,8.45
2019-04-27T11:47:46.785Z,8.73
2019-04-27T11:50:16.461Z,4.67
2019-04-27T11:52:45.645Z,6.67
2019-04-27T11:55:15.923Z,8.75
2019-04-27T11:57:44.017Z,6.10
2019-04-27T12:00:13.866Z,6.83
2019-04-27T12:02:42.090Z,10.75
2019-04-27T12:05:10.301Z,4.47
2019-04-27T12:07:38.532Z,8.95
2019-04-27T12:10:07.418Z,10.75
2019-04-27T12:12:36.299Z,11.25
2019-04-27T12:15:06.265Z,10.18
2019-04-27T12:17:35.760Z,11.48
2019-04-27T12:20:07.616Z,6.20
2019-04-27T12:22:35.814Z,10.05
2019-04-27T12:25:06.475Z,7.03
2019-04-27T12:27:51.535Z,8.08
2019-04-27T12:32:48.906Z,8.23
2019-04-27T12:35:41.458Z,7.45
2019-04-27T12:38:09.678Z,11.43
2019-04-27T12:40:37.939Z,10.82
2019-04-27T12:43:06.163Z,7.58
2019-04-27T12:45:34.404Z,25.15
2019-04-27T12:48:03.860Z,10.48
2019-04-27T12:50:32.090Z,9.73
2019-04-27T12:53:04.421Z,11.63
2019-04-27T12:55:53.328Z,11.80
2019-04-27T12:58:45.251Z,14.80
2019-04-27T13:01:17.233Z,8.25
2019-04-27T13:03:46.287Z,10.25
2019-04-27T13:06:14.599Z,6.55
2019-04-27T13:08:42.812Z,5.95
2019-04-27T13:11:12.696Z,5.37
2019-04-27T13:13:40.927Z,2.65
2019-04-27T13:16:12.878Z,3.30
2019-04-27T13:18:40.740Z,3.45
2019-04-27T13:21:08.981Z,2.17
2019-04-27T13:23:37.285Z,4.47
2019-04-27T13:26:06.251Z,2.30
2019-04-27T13:28:35.930Z,3.40
2019-04-27T13:31:04.278Z,8.63
2019-04-27T13:33:32.467Z,6.20
2019-04-27T13:36:00.694Z,3.77
2019-04-27T13:38:28.919Z,8.93
2019-04-27T13:41:07.285Z,5.15
2019-04-27T13:43:41.567Z,7.70
2019-04-27T13:46:15.725Z,5.90
2019-04-27T13:49:01.921Z,3.58
2019-04-27T13:51:43.838Z,5.15
2019-04-27T13:54:18.718Z,6.53
2019-04-27T13:56:42.007Z,7.33
2019-04-27T13:59:10.738Z,6.60
2019-04-27T14:01:40.224Z,8.65
2019-04-27T14:04:08.494Z,7.00
2019-04-27T14:06:36.684Z,6.60
2019-04-27T14:09:06.852Z,7.15
2019-04-27T14:11:35.158Z,7.22
2019-04-27T14:14:03.326Z,3.75
2019-04-27T14:16:31.560Z,6.80
2019-04-27T14:18:59.824Z,7.22
2019-04-27T14:21:29.594Z,6.00
2019-04-27T14:23:58.608Z,7.80
2019-04-27T14:26:28.452Z,4.97
2019-04-27T14:28:58.319Z,6.67
2019-04-27T14:31:26.744Z,7.92
2019-04-27T14:33:55.043Z,6.45
2019-04-27T14:36:23.262Z,10.18
2019-04-27T14:38:51.517Z,11.35
2019-04-27T14:41:19.716Z,8.83
2019-04-27T14:43:49.917Z,8.18
2019-04-27T14:46:18.730Z,10.68
2019-04-27T14:48:47.081Z,8.43
2019-04-27T14:51:15.285Z,10.88
2019-04-27T14:53:44.769Z,10.23
2019-04-27T14:56:12.955Z,11.97
2019-04-27T14:58:41.180Z,11.12
2019-04-27T15:01:09.394Z,9.48
2019-04-27T15:03:37.635Z,7.65
2019-04-27T15:06:05.836Z,10.08
2019-04-27T15:08:34.208Z,8.88
2019-04-27T15:11:02.360Z,15.05
2019-04-27T15:13:32.279Z,11.25
2019-04-27T15:16:02.579Z,11.12
2019-04-27T15:18:34.652Z,16.30
2019-04-27T15:21:02.654Z,10.80
2019-04-27T15:23:32.056Z,12.98
2019-04-27T15:26:00.459Z,15.28
2019-04-27T15:28:33.344Z,8.25
2019-04-27T15:31:03.194Z,8.00
2019-04-27T15:33:38.846Z,5.47
2019-04-27T15:36:10.360Z,8.80
2019-04-27T15:38:42.982Z,5.83
2019-04-27T15:41:19.471Z,6.33
2019-04-27T15:43:51.134Z,7.50
2019-04-27T15:46:19.422Z,5.50
2019-04-27T15:48:50.133Z,11.10
2019-04-27T15:51:21.155Z,8.23
2019-04-27T15:53:50.698Z,8.50
2019-04-27T15:56:18.297Z,11.55
2019-04-27T15:58:48.224Z,6.62
2019-04-27T16:01:18.055Z,10.08
2019-04-27T16:03:48.132Z,8.98
2019-04-27T16:06:16.549Z,11.22
2019-04-27T16:08:46.844Z,11.60
2019-04-27T16:11:16.644Z,10.88
2019-04-27T16:13:44.696Z,10.90
2019-04-27T16:16:20.210Z,9.23
2019-04-27T16:18:49.130Z,9.35
2019-04-27T16:21:17.811Z,9.20
2019-04-27T16:23:48.084Z,13.55
2019-04-27T16:26:18.160Z,12.75
2019-04-27T16:28:49.672Z,12.43
2019-04-27T16:31:18.726Z,11.12
2019-04-27T16:33:48.078Z,8.50
2019-04-27T16:36:16.919Z,12.85
2019-04-27T16:38:50.953Z,7.58
2019-04-27T16:41:19.189Z,13.32
2019-04-27T16:43:48.994Z,8.00
2019-04-27T16:46:21.054Z,9.70
2019-04-27T16:48:50.093Z,10.08
2019-04-27T16:51:18.508Z,14.63
2019-04-27T16:53:46.864Z,10.32
2019-04-27T16:56:18.338Z,7.12
2019-04-27T16:58:51.019Z,7.17
2019-04-27T17:01:19.819Z,10.10
2019-04-27T17:03:49.690Z,10.00
2019-04-27T17:06:21.019Z,11.57
2019-04-27T17:08:49.672Z,13.90
2019-04-27T17:11:19.613Z,14.07
2019-04-27T17:13:59.024Z,16.12
2019-04-27T17:17:20.576Z,12.60
2019-04-27T17:19:51.935Z,12.50
2019-04-27T17:22:23.778Z,13.28
2019-04-27T17:24:52.038Z,14.98
2019-04-27T17:27:38.614Z,20.57
2019-04-27T17:30:08.984Z,16.67
2019-04-27T17:32:50.541Z,7.85
2019-04-27T17:35:21.295Z,10.10
2019-04-27T17:37:49.570Z,12.20
2019-04-27T17:40:17.786Z,12.40
2019-04-27T17:42:46.047Z,14.33
2019-04-27T17:45:15.496Z,12.78
2019-04-27T17:47:45.308Z,14.25
2019-04-27T17:50:13.441Z,17.85
2019-04-27T17:52:41.675Z,12.37
2019-04-27T17:55:09.878Z,11.22
2019-04-27T17:57:39.164Z,10.88
2019-04-27T18:00:09.454Z,19.75
2019-04-27T18:02:38.838Z,8.60
2019-04-27T18:05:09.619Z,14.73
2019-04-27T18:07:42.665Z,18.02
2019-04-27T18:10:08.752Z,10.88
2019-04-27T18:12:37.029Z,20.50
2019-04-27T18:15:10.587Z,13.35
2019-04-27T18:17:48.355Z,10.35
2019-04-27T18:20:28.866Z,13.88
2019-04-27T18:23:01.705Z,20.48
2019-04-27T18:25:35.638Z,15.05
2019-04-27T18:28:03.424Z,22.25
2019-04-27T18:30:33.800Z,9.38
2019-04-27T18:33:04.928Z,16.23
2019-04-27T18:35:33.315Z,16.95
2019-04-27T18:38:01.966Z,13.68
2019-04-27T18:40:32.334Z,15.03
2019-04-27T18:43:02.052Z,21.95
2019-04-27T18:45:30.256Z,19.25
2019-04-27T18:48:00.138Z,19.02
2019-04-27T18:50:29.991Z,13.10
2019-04-27T18:52:59.848Z,16.35
2019-04-27T18:55:28.969Z,16.77
2019-04-27T18:58:00.507Z,20.05
2019-04-27T19:00:27.668Z,12.63
2019-04-27T19:02:58.493Z,19.67
2019-04-27T19:05:37.941Z,20.55
2019-04-27T19:07:56.803Z,23.70
2019-04-27T19:10:28.149Z,20.43
2019-04-27T19:12:58.390Z,23.25
2019-04-27T19:15:28.401Z,19.12
2019-04-27T19:17:58.168Z,28.90
2019-04-27T19:20:28.656Z,20.55
2019-04-27T19:26:31.083Z,17.57
2019-04-27T19:29:00.985Z,18.37
2019-04-27T19:31:30.823Z,21.07
2019-04-27T19:33:59.036Z,17.62
2019-04-27T19:36:42.342Z,22.13
2019-04-27T19:39:13.946Z,17.25
2019-04-27T19:41:42.375Z,22.25
2019-04-27T19:44:10.729Z,17.87
2019-04-27T19:46:40.680Z,17.35
2019-04-27T19:49:10.722Z,19.73
2019-04-27T19:51:39.292Z,18.95
2019-04-27T19:54:09.072Z,14.63
2019-04-27T19:56:38.401Z,18.82
2019-04-27T19:59:11.252Z,18.87
2019-04-27T20:01:41.211Z,14.70
2019-04-27T20:04:18.558Z,19.05
2019-04-27T20:06:48.487Z,24.98
2019-04-27T20:09:34.739Z,23.07
2019-04-27T20:12:05.091Z,27.17
2019-04-27T20:14:34.729Z,20.62
2019-04-27T20:17:03.020Z,18.70
2019-04-27T20:19:31.562Z,23.20
2019-04-27T20:22:00.834Z,21.52
2019-04-27T20:24:29.190Z,22.00
2019-04-27T20:27:00.668Z,20.60
2019-04-27T20:29:29.250Z,20.70
2019-04-27T20:32:16.862Z,15.48
2019-04-27T20:34:45.092Z,25.95
2019-04-27T20:37:13.465Z,23.90
2019-04-27T20:39:42.854Z,16.35
2019-04-27T20:42:12.538Z,16.90
2019-04-27T20:44:41.344Z,13.70
2019-04-27T20:47:10.191Z,15.68
2019-04-27T20:49:38.407Z,18.98
2019-04-27T20:52:10.966Z,18.35
2019-04-27T20:54:39.306Z,21.95
2019-04-27T20:57:07.996Z,18.98
2019-04-27T20:59:36.305Z,21.68
2019-04-27T21:02:24.051Z,22.35
2019-04-27T21:04:53.696Z,16.35
2019-04-27T21:07:23.535Z,18.12
2019-04-27T21:09:51.768Z,24.05
2019-04-27T21:12:26.104Z,17.40
2019-04-27T21:14:54.317Z,17.87
2019-04-27T21:17:22.525Z,18.30
2019-04-27T21:19:51.534Z,18.60
2019-04-27T21:22:21.227Z,13.90
2019-04-27T21:24:51.390Z,22.98
2019-04-27T21:27:19.481Z,21.57
2019-04-27T21:29:47.699Z,18.32
2019-04-27T21:32:15.913Z,17.90
2019-04-27T21:34:44.122Z,22.80
2019-04-27T21:37:12.326Z,16.40
2019-04-27T21:39:40.543Z,23.07
2019-04-27T21:42:08.756Z,16.30
2019-04-27T21:44:36.991Z,22.60
2019-04-27T21:47:05.194Z,14.60
2019-04-27T21:49:33.417Z,19.20
2019-04-27T21:52:14.972Z,15.60
2019-04-27T21:54:44.832Z,21.45
2019-04-27T21:57:13.061Z,17.12
2019-04-27T21:59:41.246Z,20.10
2019-04-27T22:02:15.827Z,15.03
2019-04-27T22:04:44.030Z,18.17
2019-04-27T22:07:12.244Z,20.00
2019-04-27T22:09:43.036Z,21.48
2019-04-27T22:12:11.227Z,19.82
2019-04-27T22:14:39.461Z,25.97
2019-04-27T22:17:07.789Z,18.27
2019-04-27T22:19:36.241Z,13.93
2019-04-27T22:22:06.113Z,15.18
2019-04-27T22:24:35.960Z,21.37
2019-04-27T22:27:04.222Z,25.10
2019-04-27T22:29:32.437Z,22.00
2019-04-27T22:32:01.652Z,19.48
2019-04-27T22:34:31.221Z,18.57
2019-04-27T22:37:00.970Z,17.75
2019-04-27T22:39:31.187Z,25.30
2019-04-27T22:42:03.754Z,24.65
2019-04-27T22:44:36.698Z,29.50
2019-04-27T22:47:04.908Z,22.70
2019-04-27T22:49:36.074Z,21.48
2019-04-27T22:52:04.284Z,22.65
2019-04-27T22:54:32.490Z,26.57
2019-04-27T22:57:02.357Z,20.35
2019-04-27T22:59:34.859Z,22.07
2019-04-27T23:02:16.935Z,16.10
2019-04-27T23:04:46.781Z,24.63
2019-04-27T23:07:15.020Z,16.35
2019-04-27T23:09:44.369Z,16.57
2019-04-27T23:12:12.662Z,17.00
2019-04-27T23:14:41.502Z,19.52
2019-04-27T23:17:17.246Z,24.80
2019-04-27T23:19:46.654Z,23.18
2019-04-27T23:22:14.899Z,24.85
2019-04-27T23:24:43.100Z,15.63
2019-04-27T23:27:11.337Z,25.40
2019-04-27T23:29:41.654Z,18.62
2019-04-27T23:32:17.460Z,18.57
2019-04-27T23:34:45.660Z,16.00
2019-04-27T23:37:13.863Z,19.82
2019-04-27T23:39:47.988Z,19.52
2019-04-27T23:42:16.197Z,22.93
2019-04-27T23:44:44.406Z,22.07
2019-04-27T23:47:12.627Z,27.87
2019-04-27T23:49:40.906Z,20.02
2019-04-27T23:52:10.707Z,19.90
2019-04-27T23:54:38.929Z,20.12
2019-04-27T23:57:07.136Z,19.95
2019-04-27T23:59:35.357Z,18.65
